Time;durP1;ratioP1;P1;durP2;ratioP2;P2;SDS_P1;SDS_P2;PMS_P1;PMS_P2;Temp;Humidity;BMP_temperature;BMP_pressure;BME280_temperature;BME280_humidity;BME280_pressure;Samples;Min_cycle;Max_cycle;Signal;HPM_P1;HPM_P2
2021/09/30 00:01:07;;;;;;;1.88;1.70;;;;;;;;;;5044582;28;20029;-64
2021/09/30 00:03:33;;;;;;;1.42;1.20;;;;;;;;;;5029467;28;20017;-64
2021/09/30 00:05:58;;;;;;;1.40;1.25;;;;;;;;;;5031600;28;20463;-64
2021/09/30 00:08:23;;;;;;;1.60;1.50;;;;;;;;;;5034233;28;20028;-64
2021/09/30 00:11:10;;;;;;;2.47;1.17;;;;;;;;;;5039867;28;20033;-63
2021/09/30 00:16:33;;;;;;;2.35;1.50;;;;;;;;;;5050356;28;20441;-64
2021/09/30 00:35:36;;;;;;;2.90;1.38;;;;;;;;;;5032111;28;20030;-63
2021/09/30 00:46:08;;;;;;;1.65;1.42;;;;;;;;;;5031226;28;20756;-63
2021/09/30 02:58:48;;;;;;;;;;;;;;;;;;4989286;28;20033;-61
2021/09/30 03:01:18;;;;;;;2.34;0.98;;;;;;;;;;4985686;28;20577;-61
2021/09/30 03:03:43;;;;;;;2.00;0.90;;;;;;;;;;4984816;28;20034;-63
2021/09/30 03:06:08;;;;;;;1.65;1.02;;;;;;;;;;4988024;28;20046;-62
2021/09/30 03:08:43;;;;;;;0.88;0.88;;;;;;;;;;4987910;28;20018;-62
2021/09/30 03:11:08;;;;;;;1.20;1.20;;;;;;;;;;4985165;28;20309;-62
2021/09/30 03:13:34;;;;;;;1.00;1.00;;;;;;;;;;5005442;28;20337;-62
2021/09/30 03:16:06;;;;;;;3.42;1.15;;;;;;;;;;5037556;28;20021;-62
2021/09/30 03:23:32;;;;;;;2.38;1.10;;;;;;;;;;5036699;28;19908;-58
2021/09/30 03:25:58;;;;;;;1.02;0.90;;;;;;;;;;5040441;28;20032;-62
2021/09/30 03:28:24;;;;;;;2.00;1.05;;;;;;;;;;5043753;28;20378;-62
2021/09/30 03:30:53;;;;;;;1.25;0.93;;;;;;;;;;5034810;28;20116;-61
2021/09/30 03:33:18;;;;;;;2.05;1.05;;;;;;;;;;5034329;28;20087;-62
2021/09/30 03:35:44;;;;;;;0.90;0.90;;;;;;;;;;5036548;28;20479;-62
2021/09/30 03:38:09;;;;;;;1.38;0.80;;;;;;;;;;5040907;28;20079;-62
2021/09/30 03:40:36;;;;;;;1.20;1.10;;;;;;;;;;5035632;28;20075;-63
2021/09/30 03:43:01;;;;;;;1.10;1.10;;;;;;;;;;5034049;28;20113;-62
2021/09/30 03:45:26;;;;;;;1.00;1.00;;;;;;;;;;5036602;28;20089;-62
2021/09/30 03:47:51;;;;;;;2.25;1.13;;;;;;;;;;5038769;28;20016;-62
2021/09/30 03:50:20;;;;;;;1.30;1.10;;;;;;;;;;5034857;28;20036;-62
2021/09/30 04:00:38;;;;;;;1.42;0.98;;;;;;;;;;5035489;28;20059;-62
2021/09/30 04:03:04;;;;;;;0.90;0.90;;;;;;;;;;5039378;28;20546;-62
2021/09/30 04:05:29;;;;;;;2.70;1.02;;;;;;;;;;5038804;28;20041;-61
2021/09/30 04:07:55;;;;;;;2.35;1.00;;;;;;;;;;5036908;28;20032;-62
2021/09/30 04:10:20;;;;;;;1.10;1.10;;;;;;;;;;5031772;28;20031;-62
2021/09/30 04:12:45;;;;;;;4.03;1.25;;;;;;;;;;5043032;28;20079;-63
2021/09/30 04:15:10;;;;;;;1.48;0.75;;;;;;;;;;5037919;28;20115;-62
2021/09/30 04:17:36;;;;;;;3.00;1.00;;;;;;;;;;5037305;28;20045;-61
2021/09/30 04:20:02;;;;;;;0.85;0.85;;;;;;;;;;5036313;28;20033;-63
2021/09/30 04:22:28;;;;;;;1.60;1.02;;;;;;;;;;5041350;28;20025;-62
2021/09/30 04:24:53;;;;;;;0.85;0.85;;;;;;;;;;5039253;28;20532;-62
2021/09/30 04:27:18;;;;;;;1.02;1.02;;;;;;;;;;5034932;28;20017;-62
2021/09/30 04:29:44;;;;;;;0.95;0.90;;;;;;;;;;5037823;28;20352;-62
2021/09/30 04:32:10;;;;;;;2.05;0.82;;;;;;;;;;5039815;28;20140;-62
2021/09/30 04:34:35;;;;;;;1.75;0.95;;;;;;;;;;5038934;28;20527;-62
2021/09/30 04:37:00;;;;;;;1.95;0.95;;;;;;;;;;5033566;28;20642;-62
2021/09/30 04:39:26;;;;;;;1.83;0.80;;;;;;;;;;5034244;28;20032;-64
2021/09/30 04:41:51;;;;;;;1.00;1.00;;;;;;;;;;5039215;28;20025;-61
2021/09/30 04:44:18;;;;;;;1.00;1.00;;;;;;;;;;5037181;28;20028;-61
2021/09/30 04:46:44;;;;;;;0.90;0.90;;;;;;;;;;5036870;28;20375;-61
2021/09/30 04:49:09;;;;;;;1.20;0.80;;;;;;;;;;5038100;28;20035;-61
2021/09/30 04:51:34;;;;;;;1.80;1.00;;;;;;;;;;5042816;28;20033;-62
2021/09/30 04:54:00;;;;;;;2.97;1.10;;;;;;;;;;5033827;28;20021;-62
2021/09/30 04:56:25;;;;;;;1.33;1.23;;;;;;;;;;5033535;28;20025;-62
2021/09/30 04:58:50;;;;;;;2.85;1.20;;;;;;;;;;5034993;28;20060;-61
2021/09/30 05:01:15;;;;;;;1.38;1.38;;;;;;;;;;5039098;28;20068;-62
2021/09/30 05:03:41;;;;;;;1.45;1.35;;;;;;;;;;5035657;28;20080;-63
2021/09/30 05:06:06;;;;;;;1.10;1.10;;;;;;;;;;5036802;28;20088;-62
2021/09/30 05:08:34;;;;;;;1.60;1.17;;;;;;;;;;5036808;28;20116;-62
2021/09/30 05:11:01;;;;;;;1.00;1.00;;;;;;;;;;5039156;28;20422;-65
2021/09/30 05:13:36;;;;;;;1.42;1.33;;;;;;;;;;5037990;28;20027;-61
2021/09/30 05:16:02;;;;;;;1.10;1.10;;;;;;;;;;5037412;28;20025;-65
2021/09/30 05:18:27;;;;;;;1.83;1.73;;;;;;;;;;5034758;28;20048;-63
2021/09/30 05:20:52;;;;;;;2.38;1.13;;;;;;;;;;5034338;28;20065;-62
2021/09/30 05:23:17;;;;;;;1.23;1.13;;;;;;;;;;5034687;28;20108;-62
2021/09/30 05:25:43;;;;;;;2.20;1.02;;;;;;;;;;5036638;28;20266;-62
2021/09/30 05:28:08;;;;;;;2.22;1.40;;;;;;;;;;5036700;28;20372;-60
2021/09/30 05:30:33;;;;;;;2.97;1.20;;;;;;;;;;5033411;28;20042;-61
2021/09/30 05:32:58;;;;;;;4.10;1.30;;;;;;;;;;5034652;28;20028;-62
2021/09/30 05:35:24;;;;;;;1.52;1.27;;;;;;;;;;5033557;28;20506;-63
2021/09/30 05:37:49;;;;;;;2.65;1.40;;;;;;;;;;5036409;28;20383;-63
2021/09/30 05:40:15;;;;;;;1.73;1.17;;;;;;;;;;5037551;28;20025;-61
2021/09/30 05:42:44;;;;;;;1.33;1.10;;;;;;;;;;5036475;28;20662;-62
2021/09/30 05:45:11;;;;;;;1.65;1.55;;;;;;;;;;5038793;28;20032;-63
2021/09/30 05:47:37;;;;;;;2.22;1.13;;;;;;;;;;5035446;28;20024;-64
2021/09/30 05:50:02;;;;;;;4.13;1.10;;;;;;;;;;5032087;28;20029;-62
2021/09/30 05:52:28;;;;;;;1.20;1.20;;;;;;;;;;5037670;28;20029;-62
2021/09/30 05:54:53;;;;;;;5.55;1.98;;;;;;;;;;5037211;28;20434;-62
2021/09/30 05:57:19;;;;;;;1.52;1.42;;;;;;;;;;5034544;28;20478;-62
2021/09/30 05:59:44;;;;;;;1.40;1.30;;;;;;;;;;5036677;28;20724;-62
2021/09/30 06:12:57;;;;;;;2.40;1.33;;;;;;;;;;5006520;28;20128;-62
2021/09/30 06:15:30;;;;;;;1.88;1.52;;;;;;;;;;5004523;28;20053;-62
2021/09/30 06:17:56;;;;;;;4.57;1.60;;;;;;;;;;5002037;28;20555;-60
2021/09/30 06:20:22;;;;;;;1.35;1.25;;;;;;;;;;5013022;28;20014;-60
2021/09/30 06:22:47;;;;;;;1.92;1.70;;;;;;;;;;5007834;28;20080;-62
2021/09/30 06:25:12;;;;;;;1.40;1.30;;;;;;;;;;5005895;28;20029;-62
2021/09/30 06:27:38;;;;;;;1.60;1.50;;;;;;;;;;4989830;28;20129;-62
2021/09/30 06:30:04;;;;;;;2.00;1.50;;;;;;;;;;5011662;28;20033;-62
2021/09/30 06:32:29;;;;;;;3.15;1.70;;;;;;;;;;5008311;28;20054;-62
2021/09/30 06:34:54;;;;;;;1.42;1.35;;;;;;;;;;5004369;28;20037;-63
2021/09/30 06:37:20;;;;;;;2.20;1.50;;;;;;;;;;5005969;28;20026;-62
2021/09/30 06:39:45;;;;;;;3.70;1.85;;;;;;;;;;5039351;28;20532;-62
2021/09/30 06:42:10;;;;;;;2.28;1.42;;;;;;;;;;5041118;28;20029;-61
2021/09/30 06:44:35;;;;;;;1.30;1.27;;;;;;;;;;5040892;28;20074;-59
2021/09/30 06:47:01;;;;;;;1.40;1.30;;;;;;;;;;5043100;28;20029;-54
2021/09/30 06:49:26;;;;;;;2.03;1.40;;;;;;;;;;5042793;28;20044;-62
2021/09/30 06:51:53;;;;;;;2.20;1.50;;;;;;;;;;5037354;28;20033;-62
2021/09/30 06:54:18;;;;;;;1.73;1.45;;;;;;;;;;5038490;28;20021;-63
2021/09/30 06:56:48;;;;;;;2.15;1.10;;;;;;;;;;5037484;28;20024;-60
2021/09/30 06:59:19;;;;;;;1.08;1.08;;;;;;;;;;5041233;28;20388;-59
2021/09/30 07:01:44;;;;;;;1.25;1.23;;;;;;;;;;5037650;28;20021;-61
2021/09/30 07:04:09;;;;;;;1.10;0.90;;;;;;;;;;5033801;28;20091;-61
2021/09/30 07:06:34;;;;;;;1.45;1.30;;;;;;;;;;5041737;28;20059;-62
2021/09/30 07:09:00;;;;;;;1.10;1.00;;;;;;;;;;5041390;28;20017;-61
2021/09/30 07:11:25;;;;;;;1.50;1.00;;;;;;;;;;5039166;28;20542;-62
2021/09/30 07:13:50;;;;;;;1.30;1.20;;;;;;;;;;5036520;28;20093;-62
2021/09/30 07:16:15;;;;;;;1.42;0.88;;;;;;;;;;5035757;28;20103;-63
2021/09/30 07:18:41;;;;;;;1.00;1.00;;;;;;;;;;5035905;28;20391;-62
2021/09/30 07:21:06;;;;;;;2.33;1.08;;;;;;;;;;5040029;28;20053;-61
2021/09/30 07:23:31;;;;;;;2.53;2.20;;;;;;;;;;5037228;28;20128;-62
2021/09/30 07:25:58;;;;;;;1.35;1.25;;;;;;;;;;5039681;28;20083;-62
2021/09/30 07:28:24;;;;;;;2.78;1.13;;;;;;;;;;5040934;28;20022;-62
2021/09/30 07:30:49;;;;;;;1.52;1.30;;;;;;;;;;5038805;28;20031;-62
2021/09/30 07:33:15;;;;;;;2.00;1.30;;;;;;;;;;5034532;28;20113;-62
2021/09/30 07:35:40;;;;;;;2.80;1.23;;;;;;;;;;5036753;28;20022;-62
2021/09/30 07:38:06;;;;;;;1.08;1.08;;;;;;;;;;5041070;28;20021;-62
2021/09/30 07:40:31;;;;;;;2.05;0.90;;;;;;;;;;5037807;28;20071;-62
2021/09/30 07:42:57;;;;;;;6.43;1.45;;;;;;;;;;5038624;28;20025;-63
2021/09/30 07:45:23;;;;;;;0.95;0.90;;;;;;;;;;5037703;28;20033;-62
2021/09/30 07:47:48;;;;;;;1.55;1.40;;;;;;;;;;5038333;28;20061;-61
2021/09/30 07:50:13;;;;;;;1.65;1.55;;;;;;;;;;5035009;28;20045;-64
2021/09/30 07:52:38;;;;;;;1.83;1.58;;;;;;;;;;5032671;28;20068;-62
2021/09/30 07:55:05;;;;;;;1.38;1.20;;;;;;;;;;5039417;28;20306;-62
2021/09/30 07:57:30;;;;;;;2.30;1.42;;;;;;;;;;5043081;28;20282;-62
2021/09/30 07:59:56;;;;;;;1.33;1.23;;;;;;;;;;5037885;28;20024;-62
2021/09/30 08:02:21;;;;;;;2.25;1.30;;;;;;;;;;5038144;28;20034;-62
2021/09/30 08:04:46;;;;;;;1.13;1.10;;;;;;;;;;5034171;28;20453;-62
2021/09/30 08:07:12;;;;;;;1.50;1.30;;;;;;;;;;5039591;28;20036;-62
2021/09/30 08:09:37;;;;;;;1.25;1.10;;;;;;;;;;5035121;28;20018;-62
2021/09/30 08:12:04;;;;;;;1.80;1.17;;;;;;;;;;5035567;28;20025;-62
2021/09/30 08:14:29;;;;;;;1.75;1.55;;;;;;;;;;5041025;28;20491;-61
2021/09/30 08:16:54;;;;;;;2.85;1.05;;;;;;;;;;5038724;28;20036;-61
2021/09/30 08:19:20;;;;;;;2.08;1.02;;;;;;;;;;5036158;28;20420;-61
2021/09/30 08:21:45;;;;;;;1.42;1.00;;;;;;;;;;5034580;28;20036;-62
2021/09/30 08:24:14;;;;;;;4.57;1.00;;;;;;;;;;5036852;28;20056;-61
2021/09/30 08:26:40;;;;;;;1.40;0.80;;;;;;;;;;5037693;28;20162;-61
2021/09/30 08:29:05;;;;;;;1.70;1.15;;;;;;;;;;5036283;28;20088;-63
2021/09/30 08:31:30;;;;;;;1.42;1.10;;;;;;;;;;5035646;28;20482;-62
2021/09/30 08:33:58;;;;;;;0.80;0.80;;;;;;;;;;5037482;28;20037;-62
2021/09/30 08:36:24;;;;;;;1.25;1.25;;;;;;;;;;5040144;28;20026;-62
2021/09/30 08:38:49;;;;;;;2.50;1.00;;;;;;;;;;5034863;28;20017;-61
2021/09/30 08:41:15;;;;;;;1.10;1.00;;;;;;;;;;5034926;28;20372;-61
2021/09/30 08:43:41;;;;;;;2.25;1.10;;;;;;;;;;5035573;28;20028;-61
2021/09/30 08:46:06;;;;;;;1.42;1.30;;;;;;;;;;5032868;28;20029;-61
2021/09/30 08:48:32;;;;;;;1.70;1.60;;;;;;;;;;5032174;28;20406;-61
2021/09/30 08:50:58;;;;;;;1.15;0.90;;;;;;;;;;5039636;28;20053;-62
2021/09/30 08:53:23;;;;;;;1.60;1.00;;;;;;;;;;5039944;28;20042;-62
2021/09/30 08:55:48;;;;;;;1.38;1.20;;;;;;;;;;5036130;28;20025;-60
2021/09/30 08:58:13;;;;;;;1.70;1.17;;;;;;;;;;5033915;28;20118;-61
2021/09/30 09:00:42;;;;;;;1.45;1.40;;;;;;;;;;5033334;28;20064;-62
2021/09/30 09:03:07;;;;;;;2.90;1.17;;;;;;;;;;5039085;28;20537;-59
2021/09/30 09:05:35;;;;;;;3.20;1.10;;;;;;;;;;5036977;28;20081;-59
2021/09/30 09:08:07;;;;;;;0.90;0.90;;;;;;;;;;5035348;28;20404;-61
2021/09/30 09:10:33;;;;;;;2.22;1.52;;;;;;;;;;5039577;28;20029;-61
2021/09/30 09:13:03;;;;;;;4.65;2.03;;;;;;;;;;5036571;28;20298;-61
2021/09/30 09:15:37;;;;;;;3.45;1.60;;;;;;;;;;5034574;28;20050;-60
2021/09/30 09:18:17;;;;;;;1.70;1.05;;;;;;;;;;5034228;28;20121;-60
2021/09/30 09:21:01;;;;;;;1.48;1.45;;;;;;;;;;5038072;28;20017;-60
2021/09/30 09:23:27;;;;;;;3.10;1.60;;;;;;;;;;5040750;28;20070;-58
2021/09/30 09:26:09;;;;;;;1.48;1.33;;;;;;;;;;5034241;28;20033;-61
2021/09/30 09:28:36;;;;;;;1.20;1.20;;;;;;;;;;5033063;28;20113;-60
2021/09/30 09:31:01;;;;;;;3.70;1.65;;;;;;;;;;5036499;28;20032;-60
2021/09/30 09:33:33;;;;;;;1.60;1.38;;;;;;;;;;5036435;28;20029;-59
2021/09/30 09:36:12;;;;;;;2.75;1.20;;;;;;;;;;5032984;28;20040;-60
2021/09/30 09:38:43;;;;;;;3.03;1.50;;;;;;;;;;5036533;28;20475;-61
2021/09/30 09:41:09;;;;;;;1.42;1.25;;;;;;;;;;5037873;28;20029;-59
2021/09/30 09:43:35;;;;;;;2.88;1.27;;;;;;;;;;5036094;28;20095;-61
2021/09/30 09:46:00;;;;;;;1.20;1.10;;;;;;;;;;5033298;28;20021;-59
2021/09/30 09:48:26;;;;;;;2.50;1.40;;;;;;;;;;5036482;28;20048;-61
2021/09/30 09:50:52;;;;;;;1.88;1.30;;;;;;;;;;5036616;28;20026;-60
2021/09/30 09:53:17;;;;;;;1.95;1.13;;;;;;;;;;5033066;28;20490;-60
2021/09/30 09:55:43;;;;;;;2.30;1.10;;;;;;;;;;5034339;28;20033;-55
2021/09/30 09:58:12;;;;;;;1.52;1.30;;;;;;;;;;5039606;28;20029;-60
2021/09/30 10:00:39;;;;;;;1.50;1.33;;;;;;;;;;5033055;28;20021;-58
2021/09/30 10:03:11;;;;;;;1.95;1.33;;;;;;;;;;5035505;28;20024;-60
2021/09/30 10:05:36;;;;;;;1.75;1.40;;;;;;;;;;5030748;28;20081;-60
2021/09/30 10:08:03;;;;;;;1.30;1.20;;;;;;;;;;5032320;28;20494;-59
2021/09/30 10:10:28;;;;;;;1.40;1.20;;;;;;;;;;5029341;28;20042;-61
2021/09/30 10:12:54;;;;;;;1.25;1.15;;;;;;;;;;5037070;28;20371;-59
2021/09/30 10:15:19;;;;;;;1.42;1.33;;;;;;;;;;5037390;28;20033;-60
2021/09/30 10:17:44;;;;;;;2.78;1.65;;;;;;;;;;5037760;28;20021;-59
2021/09/30 10:20:10;;;;;;;1.60;1.50;;;;;;;;;;5040345;28;20037;-59
2021/09/30 10:22:35;;;;;;;1.33;1.30;;;;;;;;;;5040578;28;20028;-60
2021/09/30 10:25:01;;;;;;;2.42;1.38;;;;;;;;;;5037433;28;20033;-58
2021/09/30 10:27:26;;;;;;;2.05;1.42;;;;;;;;;;5035927;28;20112;-58
2021/09/30 10:29:53;;;;;;;1.40;1.30;;;;;;;;;;5040402;28;20025;-59
2021/09/30 10:32:20;;;;;;;2.05;1.45;;;;;;;;;;5041090;28;20024;-58
2021/09/30 10:34:47;;;;;;;4.93;1.50;;;;;;;;;;5046913;28;20033;-59
2021/09/30 10:37:20;;;;;;;1.70;1.60;;;;;;;;;;5044703;28;20057;-60
2021/09/30 10:40:05;;;;;;;1.60;1.50;;;;;;;;;;5046779;28;20025;-60
2021/09/30 10:42:53;;;;;;;2.70;1.95;;;;;;;;;;5045797;28;20029;-60
2021/09/30 10:45:19;;;;;;;1.40;1.30;;;;;;;;;;5037240;28;20658;-59
2021/09/30 10:47:44;;;;;;;1.50;1.40;;;;;;;;;;5039782;28;20031;-60
2021/09/30 10:50:10;;;;;;;1.20;1.10;;;;;;;;;;5039316;28;20025;-58
2021/09/30 10:52:47;;;;;;;1.38;1.27;;;;;;;;;;5038808;28;20029;-59
2021/09/30 10:55:16;;;;;;;2.65;1.90;;;;;;;;;;5038115;28;20033;-59
2021/09/30 10:57:51;;;;;;;1.92;1.20;;;;;;;;;;5039017;28;20753;-58
2021/09/30 11:00:17;;;;;;;1.40;1.30;;;;;;;;;;5077896;22;20057;-89
2021/09/30 11:03:02;;;;;;;1.55;1.50;;;;;;;;;;5040606;28;20048;-88
2021/09/30 11:05:28;;;;;;;1.20;1.20;;;;;;;;;;5039564;28;20024;-87
2021/09/30 11:08:11;;;;;;;1.75;1.40;;;;;;;;;;5056759;28;20021;-88
2021/09/30 11:10:38;;;;;;;1.15;1.10;;;;;;;;;;5058028;28;20017;-90
2021/09/30 11:13:36;;;;;;;1.55;1.10;;;;;;;;;;5058782;28;20097;-87
2021/09/30 11:16:08;;;;;;;2.10;1.48;;;;;;;;;;5041327;28;20428;-88
2021/09/30 11:18:51;;;;;;;2.33;1.55;;;;;;;;;;5041339;28;20047;-88
2021/09/30 11:21:31;;;;;;;1.05;1.05;;;;;;;;;;5040725;28;20020;-88
2021/09/30 11:24:25;;;;;;;3.42;1.70;;;;;;;;;;5061488;28;20521;-87
2021/09/30 11:26:54;;;;;;;1.63;1.48;;;;;;;;;;5036848;28;20021;-87
2021/09/30 11:29:19;;;;;;;2.17;1.75;;;;;;;;;;5049135;28;20056;-90
2021/09/30 11:31:45;;;;;;;1.33;1.23;;;;;;;;;;5039521;28;20025;-90
2021/09/30 11:34:17;;;;;;;3.60;1.25;;;;;;;;;;5039326;28;20044;-88
2021/09/30 11:36:43;;;;;;;1.50;1.40;;;;;;;;;;5058365;28;20013;-87
2021/09/30 11:39:08;;;;;;;3.05;1.27;;;;;;;;;;5057876;28;20513;-87
2021/09/30 11:41:38;;;;;;;1.63;1.23;;;;;;;;;;5055755;28;20025;-87
2021/09/30 11:44:03;;;;;;;1.45;1.30;;;;;;;;;;5057268;28;20023;-87
2021/09/30 11:46:32;;;;;;;1.85;1.48;;;;;;;;;;5070329;28;20068;-87
2021/09/30 11:49:01;;;;;;;1.40;1.30;;;;;;;;;;5058326;28;20024;-88
2021/09/30 11:51:34;;;;;;;3.70;1.60;;;;;;;;;;5054273;28;20040;-87
2021/09/30 11:54:00;;;;;;;2.25;1.83;;;;;;;;;;5056540;28;20044;-86
2021/09/30 11:56:27;;;;;;;1.60;1.50;;;;;;;;;;5043129;28;20029;-87
2021/09/30 11:59:05;;;;;;;1.20;1.20;;;;;;;;;;5040631;28;20132;-87
2021/09/30 12:01:46;;;;;;;2.72;1.40;;;;;;;;;;5002389;28;20555;-87
2021/09/30 12:04:13;;;;;;;1.30;1.20;;;;;;;;;;5033406;28;20029;-86
2021/09/30 12:06:46;;;;;;;1.20;1.20;;;;;;;;;;5048452;28;20096;-87
2021/09/30 12:09:14;;;;;;;1.30;1.20;;;;;;;;;;5016688;28;20018;-87
2021/09/30 12:11:47;;;;;;;1.90;1.25;;;;;;;;;;5020346;28;20026;-86
2021/09/30 12:14:15;;;;;;;1.48;1.38;;;;;;;;;;5030430;28;20084;-87
2021/09/30 12:16:57;;;;;;;1.33;1.23;;;;;;;;;;5020929;28;20014;-87
2021/09/30 12:19:39;;;;;;;1.58;1.48;;;;;;;;;;5034089;28;20025;-86
2021/09/30 12:22:08;;;;;;;1.38;1.27;;;;;;;;;;5021542;28;20053;-88
2021/09/30 12:24:33;;;;;;;3.00;1.15;;;;;;;;;;5021914;28;20018;-87
2021/09/30 12:26:58;;;;;;;1.13;1.10;;;;;;;;;;5019810;28;20036;-87
2021/09/30 12:29:24;;;;;;;1.23;1.20;;;;;;;;;;5019961;28;20108;-88
2021/09/30 12:32:06;;;;;;;1.27;1.27;;;;;;;;;;5020706;28;20469;-87
2021/09/30 12:34:32;;;;;;;1.20;1.20;;;;;;;;;;5020618;28;20018;-85
2021/09/30 12:36:59;;;;;;;1.40;1.30;;;;;;;;;;5022665;28;20072;-86
2021/09/30 12:39:25;;;;;;;1.30;1.20;;;;;;;;;;5018817;28;20454;-87
2021/09/30 12:41:51;;;;;;;1.67;1.10;;;;;;;;;;5018512;28;20148;-87
2021/09/30 12:44:17;;;;;;;1.10;1.10;;;;;;;;;;5018858;28;20041;-88
2021/09/30 12:46:46;;;;;;;1.20;1.20;;;;;;;;;;5025328;28;20018;-88
2021/09/30 12:49:11;;;;;;;1.02;1.02;;;;;;;;;;5024183;28;20013;-88
2021/09/30 12:51:37;;;;;;;2.75;1.30;;;;;;;;;;5026633;28;20223;-88
2021/09/30 12:54:02;;;;;;;1.38;1.25;;;;;;;;;;5038198;28;20089;-87
2021/09/30 12:56:32;;;;;;;1.42;1.20;;;;;;;;;;5036845;28;20022;-87
2021/09/30 12:59:20;;;;;;;1.83;1.20;;;;;;;;;;5037095;28;20010;-87
2021/09/30 13:01:45;;;;;;;1.17;1.08;;;;;;;;;;5058662;28;20037;-88
2021/09/30 13:04:19;;;;;;;2.25;1.50;;;;;;;;;;5059880;28;20005;-87
2021/09/30 13:06:55;;;;;;;3.30;1.55;;;;;;;;;;5076185;28;19994;-86
2021/09/30 13:09:30;;;;;;;1.73;1.63;;;;;;;;;;5074566;28;20020;-87
2021/09/30 13:11:57;;;;;;;2.15;1.60;;;;;;;;;;5077356;28;20021;-87
2021/09/30 13:14:22;;;;;;;1.27;1.27;;;;;;;;;;5060167;28;20005;-86
2021/09/30 13:16:51;;;;;;;1.77;1.30;;;;;;;;;;5077567;28;20031;-86
2021/09/30 13:19:18;;;;;;;1.50;1.20;;;;;;;;;;5077285;28;20043;-87
2021/09/30 13:21:55;;;;;;;1.10;1.10;;;;;;;;;;5062465;28;20017;-87
2021/09/30 13:24:20;;;;;;;1.42;1.33;;;;;;;;;;5063559;28;20016;-87
2021/09/30 13:26:45;;;;;;;1.15;1.15;;;;;;;;;;5057714;28;20017;-87
2021/09/30 13:29:10;;;;;;;1.30;1.30;;;;;;;;;;5058139;28;20013;-86
2021/09/30 13:31:36;;;;;;;1.40;1.30;;;;;;;;;;5056557;28;20109;-86
2021/09/30 13:34:03;;;;;;;1.20;1.20;;;;;;;;;;5057325;28;20074;-87
2021/09/30 13:36:28;;;;;;;2.35;1.45;;;;;;;;;;5041261;28;20021;-86
2021/09/30 13:38:53;;;;;;;1.50;1.40;;;;;;;;;;5040456;28;20025;-85
2021/09/30 13:41:21;;;;;;;1.60;1.10;;;;;;;;;;5059013;28;20028;-88
2021/09/30 13:43:47;;;;;;;2.30;1.23;;;;;;;;;;5032832;28;20021;-88
2021/09/30 13:46:12;;;;;;;1.55;1.10;;;;;;;;;;5057528;28;20035;-87
2021/09/30 13:48:41;;;;;;;1.85;1.35;;;;;;;;;;5041064;28;20032;-87
2021/09/30 13:51:08;;;;;;;2.10;1.20;;;;;;;;;;5062461;28;20029;-87
2021/09/30 13:53:34;;;;;;;1.30;1.20;;;;;;;;;;5043366;28;20527;-87
2021/09/30 13:56:00;;;;;;;1.80;1.20;;;;;;;;;;5064089;28;20033;-86
2021/09/30 13:58:27;;;;;;;1.35;1.15;;;;;;;;;;5056653;28;20021;-86
2021/09/30 14:00:56;;;;;;;1.27;1.10;;;;;;;;;;5064604;28;20041;-86
2021/09/30 14:03:24;;;;;;;2.03;1.40;;;;;;;;;;5051308;28;20035;-85
2021/09/30 14:05:50;;;;;;;1.98;1.25;;;;;;;;;;5062270;28;20044;-86
2021/09/30 14:08:20;;;;;;;2.35;1.52;;;;;;;;;;5054858;28;20052;-87
2021/09/30 14:10:47;;;;;;;1.33;1.02;;;;;;;;;;5060385;28;20025;-86
2021/09/30 14:13:16;;;;;;;3.25;1.40;;;;;;;;;;5045285;28;20029;-89
2021/09/30 14:15:46;;;;;;;3.28;1.10;;;;;;;;;;5065793;28;20021;-86
2021/09/30 14:18:12;;;;;;;2.30;1.58;;;;;;;;;;5061574;28;20025;-88
2021/09/30 14:20:38;;;;;;;1.30;1.25;;;;;;;;;;5045202;28;20021;-87
2021/09/30 14:23:04;;;;;;;1.52;1.42;;;;;;;;;;5063112;28;20078;-87
2021/09/30 14:25:29;;;;;;;1.42;1.30;;;;;;;;;;5061995;28;20025;-88
2021/09/30 14:27:55;;;;;;;3.88;1.27;;;;;;;;;;5065452;28;20036;-87
2021/09/30 14:30:20;;;;;;;1.67;1.58;;;;;;;;;;5080289;28;20020;-88
2021/09/30 14:32:46;;;;;;;1.02;1.02;;;;;;;;;;5070269;28;20029;-87
2021/09/30 14:35:14;;;;;;;1.27;1.27;;;;;;;;;;5048998;28;20548;-88
2021/09/30 14:37:40;;;;;;;1.13;1.10;;;;;;;;;;5061950;28;20474;-87
2021/09/30 14:40:07;;;;;;;1.85;1.30;;;;;;;;;;5060901;28;20017;-87
2021/09/30 14:42:32;;;;;;;1.20;1.20;;;;;;;;;;5043244;28;20021;-87
2021/09/30 14:44:58;;;;;;;1.35;1.23;;;;;;;;;;5048202;28;20544;-87
2021/09/30 14:47:25;;;;;;;1.38;1.08;;;;;;;;;;5060471;28;20403;-87
2021/09/30 14:49:56;;;;;;;1.85;1.00;;;;;;;;;;5061574;28;20028;-87
2021/09/30 14:52:21;;;;;;;1.98;1.33;;;;;;;;;;5057888;28;20037;-86
2021/09/30 14:54:48;;;;;;;1.67;1.15;;;;;;;;;;5056884;28;20086;-87
2021/09/30 14:57:14;;;;;;;1.15;1.15;;;;;;;;;;5058229;28;20025;-86
2021/09/30 14:59:39;;;;;;;1.20;1.10;;;;;;;;;;5038726;28;20062;-87
2021/09/30 15:02:05;;;;;;;2.10;1.88;;;;;;;;;;5018287;28;20042;-87
2021/09/30 15:04:31;;;;;;;1.50;1.40;;;;;;;;;;5037822;28;20346;-86
2021/09/30 15:06:57;;;;;;;2.28;1.83;;;;;;;;;;5020498;28;20026;-86
2021/09/30 15:09:25;;;;;;;2.33;1.20;;;;;;;;;;5019755;28;20022;-85
2021/09/30 15:11:50;;;;;;;1.30;1.20;;;;;;;;;;5019115;28;20089;-85
2021/09/30 15:14:15;;;;;;;1.08;0.98;;;;;;;;;;5019393;28;20056;-86
2021/09/30 15:16:53;;;;;;;1.02;1.02;;;;;;;;;;5025582;28;20001;-86
2021/09/30 15:19:21;;;;;;;3.60;1.98;;;;;;;;;;5036582;28;20041;-86
2021/09/30 15:21:48;;;;;;;1.83;1.00;;;;;;;;;;5036972;28;20029;-86
2021/09/30 15:24:15;;;;;;;1.30;1.20;;;;;;;;;;5034700;28;20037;-88
2021/09/30 15:26:41;;;;;;;2.15;1.10;;;;;;;;;;5019170;28;20025;-88
2021/09/30 15:29:06;;;;;;;1.27;1.17;;;;;;;;;;5018566;28;20026;-87
2021/09/30 15:31:31;;;;;;;0.90;0.90;;;;;;;;;;5019640;28;20481;-86
2021/09/30 15:33:58;;;;;;;1.17;1.08;;;;;;;;;;5038355;28;20030;-87
2021/09/30 15:36:25;;;;;;;2.28;1.40;;;;;;;;;;5023312;28;20036;-87
2021/09/30 15:38:54;;;;;;;1.50;1.40;;;;;;;;;;5024235;28;20018;-87
2021/09/30 15:41:19;;;;;;;1.67;1.40;;;;;;;;;;5034211;28;20037;-89
2021/09/30 15:43:45;;;;;;;1.48;1.33;;;;;;;;;;5032554;28;20025;-87
2021/09/30 15:46:11;;;;;;;1.25;1.15;;;;;;;;;;5018548;28;20021;-89
2021/09/30 15:48:36;;;;;;;1.85;1.00;;;;;;;;;;5033289;28;20374;-92
2021/09/30 15:51:17;;;;;;;3.25;1.38;;;;;;;;;;5037747;28;20454;-89
2021/09/30 15:53:44;;;;;;;6.07;1.30;;;;;;;;;;5020974;28;20038;-89
2021/09/30 15:56:13;;;;;;;2.03;1.23;;;;;;;;;;5034750;28;20010;-91
2021/09/30 15:58:47;;;;;;;1.10;1.10;;;;;;;;;;5037731;28;20030;-90
2021/09/30 16:01:13;;;;;;;1.40;1.30;;;;;;;;;;5046226;28;20053;-88
2021/09/30 16:03:39;;;;;;;1.00;1.00;;;;;;;;;;5025063;28;20030;-86
2021/09/30 16:06:05;;;;;;;1.00;1.00;;;;;;;;;;5023291;28;20025;-86
2021/09/30 16:08:30;;;;;;;2.17;1.20;;;;;;;;;;5020465;28;20445;-86
2021/09/30 16:10:56;;;;;;;1.88;1.30;;;;;;;;;;5018216;28;20050;-86
2021/09/30 16:13:22;;;;;;;2.42;1.30;;;;;;;;;;5018695;28;20033;-85
2021/09/30 16:15:47;;;;;;;1.67;1.00;;;;;;;;;;5000698;28;20022;-85
2021/09/30 16:18:12;;;;;;;1.02;1.02;;;;;;;;;;5019716;28;20018;-85
2021/09/30 16:20:39;;;;;;;6.55;1.65;;;;;;;;;;5022797;28;20021;-84
2021/09/30 16:23:06;;;;;;;1.20;1.10;;;;;;;;;;5019387;28;20444;-86
2021/09/30 16:25:32;;;;;;;1.20;1.10;;;;;;;;;;5018165;28;20029;-86
2021/09/30 16:27:58;;;;;;;1.15;1.08;;;;;;;;;;5034736;28;20026;-86
2021/09/30 16:30:23;;;;;;;2.33;1.38;;;;;;;;;;5018860;28;20014;-86
2021/09/30 16:32:51;;;;;;;6.35;2.45;;;;;;;;;;5019109;28;20164;-86
2021/09/30 16:35:17;;;;;;;10.85;3.13;;;;;;;;;;5017360;28;20022;-86
2021/09/30 16:37:42;;;;;;;11.45;4.07;;;;;;;;;;5018538;28;20041;-86
2021/09/30 16:40:10;;;;;;;9.38;3.78;;;;;;;;;;5018400;28;20544;-87
2021/09/30 16:42:36;;;;;;;8.48;2.83;;;;;;;;;;5018666;28;20022;-86
2021/09/30 16:45:06;;;;;;;7.07;2.65;;;;;;;;;;5016571;28;20028;-87
2021/09/30 16:47:38;;;;;;;13.90;3.90;;;;;;;;;;5017585;28;20068;-87
2021/09/30 16:50:10;;;;;;;12.30;5.35;;;;;;;;;;5019389;28;20041;-86
2021/09/30 16:52:37;;;;;;;7.15;3.13;;;;;;;;;;5019106;28;20450;-86
2021/09/30 16:55:04;;;;;;;5.50;2.72;;;;;;;;;;5036167;28;20159;-86
2021/09/30 16:57:29;;;;;;;11.73;3.45;;;;;;;;;;5029529;28;20032;-88
2021/09/30 16:59:55;;;;;;;9.35;3.85;;;;;;;;;;5020909;28;20399;-86
2021/09/30 17:02:23;;;;;;;13.50;5.43;;;;;;;;;;5017787;28;20041;-87
2021/09/30 17:04:48;;;;;;;7.55;3.67;;;;;;;;;;5020388;28;20208;-87
2021/09/30 17:07:13;;;;;;;8.60;3.05;;;;;;;;;;5016212;28;20370;-86
2021/09/30 17:09:39;;;;;;;5.78;3.38;;;;;;;;;;5041188;28;20022;-87
2021/09/30 17:12:06;;;;;;;16.75;5.40;;;;;;;;;;5008401;28;20058;-87
2021/09/30 17:14:36;;;;;;;15.98;6.28;;;;;;;;;;5015838;28;20081;-86
2021/09/30 17:17:11;;;;;;;12.82;5.65;;;;;;;;;;5027215;28;20476;-85
2021/09/30 17:19:37;;;;;;;11.82;5.75;;;;;;;;;;5034089;28;20096;-87
2021/09/30 17:22:09;;;;;;;16.08;5.78;;;;;;;;;;5022398;28;20060;-86
2021/09/30 17:24:56;;;;;;;14.48;5.75;;;;;;;;;;5020772;28;20109;-86
2021/09/30 17:27:27;;;;;;;7.88;3.30;;;;;;;;;;5020746;28;20021;-86
2021/09/30 17:29:57;;;;;;;4.45;1.45;;;;;;;;;;5020082;28;20029;-86
2021/09/30 17:32:24;;;;;;;6.72;1.92;;;;;;;;;;5019752;28;20041;-86
2021/09/30 17:34:50;;;;;;;6.32;2.60;;;;;;;;;;5018195;28;20637;-86
2021/09/30 17:37:17;;;;;;;4.32;2.42;;;;;;;;;;5021011;28;20030;-86
2021/09/30 17:39:45;;;;;;;2.47;1.73;;;;;;;;;;5020847;28;20109;-86
2021/09/30 17:42:12;;;;;;;5.28;2.78;;;;;;;;;;5022521;28;20373;-85
2021/09/30 17:44:39;;;;;;;11.45;4.47;;;;;;;;;;5024070;28;20045;-86
2021/09/30 17:47:06;;;;;;;10.73;4.43;;;;;;;;;;5020838;28;20488;-85